sensor_id;sensor_type;location;lat;lon;timestamp;P1;durP1;ratioP1;P2;durP2;ratioP2
7381;SDS011;3732;48.052;7.800;2022-07-05T00:01:15;2.00;;;1.90;;
7381;SDS011;3732;48.052;7.800;2022-07-05T00:03:43;2.80;;;1.80;;
7381;SDS011;3732;48.052;7.800;2022-07-05T00:06:10;2.13;;;1.70;;
7381;SDS011;3732;48.052;7.800;2022-07-05T00:08:37;2.20;;;2.00;;
7381;SDS011;3732;48.052;7.800;2022-07-05T00:11:06;2.10;;;2.00;;
7381;SDS011;3732;48.052;7.800;2022-07-05T00:13:34;3.77;;;2.00;;
7381;SDS011;3732;48.052;7.800;2022-07-05T00:16:01;3.03;;;2.27;;
7381;SDS011;3732;48.052;7.800;2022-07-05T00:18:28;2.90;;;2.50;;
7381;SDS011;3732;48.052;7.800;2022-07-05T00:20:55;2.70;;;2.40;;
7381;SDS011;3732;48.052;7.800;2022-07-05T00:23:23;3.47;;;2.27;;
7381;SDS011;3732;48.052;7.800;2022-07-05T00:25:50;2.57;;;2.30;;
7381;SDS011;3732;48.052;7.800;2022-07-05T00:28:19;3.43;;;2.27;;
7381;SDS011;3732;48.052;7.800;2022-07-05T00:30:46;3.00;;;2.57;;
7381;SDS011;3732;48.052;7.800;2022-07-05T00:33:13;2.60;;;2.40;;
7381;SDS011;3732;48.052;7.800;2022-07-05T00:35:40;4.23;;;2.30;;
7381;SDS011;3732;48.052;7.800;2022-07-05T00:38:08;2.83;;;2.40;;
7381;SDS011;3732;48.052;7.800;2022-07-05T00:40:35;2.87;;;2.30;;
7381;SDS011;3732;48.052;7.800;2022-07-05T00:43:02;2.20;;;2.10;;
7381;SDS011;3732;48.052;7.800;2022-07-05T00:45:31;2.53;;;2.20;;
7381;SDS011;3732;48.052;7.800;2022-07-05T00:47:58;3.67;;;2.17;;
7381;SDS011;3732;48.052;7.800;2022-07-05T00:50:26;3.60;;;2.10;;
7381;SDS011;3732;48.052;7.800;2022-07-05T00:52:54;2.33;;;2.17;;
7381;SDS011;3732;48.052;7.800;2022-07-05T00:55:21;2.27;;;2.03;;
7381;SDS011;3732;48.052;7.800;2022-07-05T00:57:49;2.30;;;2.10;;
7381;SDS011;3732;48.052;7.800;2022-07-05T01:00:16;2.70;;;1.97;;
7381;SDS011;3732;48.052;7.800;2022-07-05T01:02:45;3.87;;;2.23;;
7381;SDS011;3732;48.052;7.800;2022-07-05T01:05:13;3.37;;;2.00;;
7381;SDS011;3732;48.052;7.800;2022-07-05T01:07:41;2.23;;;2.10;;
7381;SDS011;3732;48.052;7.800;2022-07-05T01:10:08;2.40;;;2.20;;
7381;SDS011;3732;48.052;7.800;2022-07-05T01:12:37;3.03;;;2.50;;
7381;SDS011;3732;48.052;7.800;2022-07-05T01:15:05;2.00;;;1.80;;
7381;SDS011;3732;48.052;7.800;2022-07-05T01:17:32;4.20;;;2.20;;
7381;SDS011;3732;48.052;7.800;2022-07-05T01:20:02;2.73;;;2.20;;
7381;SDS011;3732;48.052;7.800;2022-07-05T01:22:33;3.63;;;2.10;;
7381;SDS011;3732;48.052;7.800;2022-07-05T01:25:06;2.67;;;1.77;;
7381;SDS011;3732;48.052;7.800;2022-07-05T01:27:33;2.10;;;1.90;;
7381;SDS011;3732;48.052;7.800;2022-07-05T01:30:01;2.37;;;1.97;;
7381;SDS011;3732;48.052;7.800;2022-07-05T01:32:28;3.50;;;2.07;;
7381;SDS011;3732;48.052;7.800;2022-07-05T01:34:55;6.60;;;2.43;;
7381;SDS011;3732;48.052;7.800;2022-07-05T01:37:22;2.20;;;2.00;;
7381;SDS011;3732;48.052;7.800;2022-07-05T01:39:51;3.13;;;2.27;;
7381;SDS011;3732;48.052;7.800;2022-07-05T01:42:19;4.17;;;2.40;;
7381;SDS011;3732;48.052;7.800;2022-07-05T01:44:47;2.40;;;2.20;;
7381;SDS011;3732;48.052;7.800;2022-07-05T01:47:14;5.13;;;2.30;;
7381;SDS011;3732;48.052;7.800;2022-07-05T01:49:43;4.43;;;2.20;;
7381;SDS011;3732;48.052;7.800;2022-07-05T01:52:11;2.57;;;2.30;;
7381;SDS011;3732;48.052;7.800;2022-07-05T01:54:38;4.97;;;2.37;;
7381;SDS011;3732;48.052;7.800;2022-07-05T01:57:07;2.43;;;2.20;;
7381;SDS011;3732;48.052;7.800;2022-07-05T01:59:35;2.10;;;1.90;;
7381;SDS011;3732;48.052;7.800;2022-07-05T02:02:03;1.90;;;1.80;;
7381;SDS011;3732;48.052;7.800;2022-07-05T02:04:30;2.80;;;2.30;;
7381;SDS011;3732;48.052;7.800;2022-07-05T02:06:58;3.80;;;2.17;;
7381;SDS011;3732;48.052;7.800;2022-07-05T02:09:25;2.47;;;2.17;;
7381;SDS011;3732;48.052;7.800;2022-07-05T02:11:52;2.50;;;2.20;;
7381;SDS011;3732;48.052;7.800;2022-07-05T02:14:21;3.07;;;2.40;;
7381;SDS011;3732;48.052;7.800;2022-07-05T02:16:48;2.50;;;2.30;;
7381;SDS011;3732;48.052;7.800;2022-07-05T02:19:16;2.53;;;2.33;;
7381;SDS011;3732;48.052;7.800;2022-07-05T02:21:43;2.70;;;2.50;;
7381;SDS011;3732;48.052;7.800;2022-07-05T02:24:11;3.80;;;2.40;;
7381;SDS011;3732;48.052;7.800;2022-07-05T02:26:38;3.87;;;2.20;;
7381;SDS011;3732;48.052;7.800;2022-07-05T02:29:06;4.00;;;1.90;;
7381;SDS011;3732;48.052;7.800;2022-07-05T02:31:34;2.20;;;2.00;;
7381;SDS011;3732;48.052;7.800;2022-07-05T02:34:01;2.43;;;2.30;;
7381;SDS011;3732;48.052;7.800;2022-07-05T02:36:29;2.47;;;2.27;;
7381;SDS011;3732;48.052;7.800;2022-07-05T02:38:56;2.20;;;2.03;;
7381;SDS011;3732;48.052;7.800;2022-07-05T02:41:23;2.53;;;2.20;;
7381;SDS011;3732;48.052;7.800;2022-07-05T02:46:55;2.63;;;2.30;;
7381;SDS011;3732;48.052;7.800;2022-07-05T02:49:22;2.73;;;2.20;;
7381;SDS011;3732;48.052;7.800;2022-07-05T02:51:50;3.63;;;2.40;;
7381;SDS011;3732;48.052;7.800;2022-07-05T02:54:17;2.37;;;2.17;;
7381;SDS011;3732;48.052;7.800;2022-07-05T02:56:44;2.40;;;2.20;;
7381;SDS011;3732;48.052;7.800;2022-07-05T02:59:11;4.07;;;2.53;;
7381;SDS011;3732;48.052;7.800;2022-07-05T03:01:38;3.07;;;2.50;;
7381;SDS011;3732;48.052;7.800;2022-07-05T03:04:07;4.00;;;2.30;;
7381;SDS011;3732;48.052;7.800;2022-07-05T03:06:35;3.07;;;2.30;;
7381;SDS011;3732;48.052;7.800;2022-07-05T03:09:02;2.90;;;2.20;;
7381;SDS011;3732;48.052;7.800;2022-07-05T03:11:29;2.90;;;2.70;;
7381;SDS011;3732;48.052;7.800;2022-07-05T03:13:56;2.60;;;2.40;;
7381;SDS011;3732;48.052;7.800;2022-07-05T03:16:24;2.97;;;2.77;;
7381;SDS011;3732;48.052;7.800;2022-07-05T03:18:51;3.20;;;2.50;;
7381;SDS011;3732;48.052;7.800;2022-07-05T03:21:19;2.67;;;2.47;;
7381;SDS011;3732;48.052;7.800;2022-07-05T03:23:47;2.90;;;2.63;;
7381;SDS011;3732;48.052;7.800;2022-07-05T03:26:14;2.93;;;2.70;;
7381;SDS011;3732;48.052;7.800;2022-07-05T03:28:41;3.10;;;2.63;;
7381;SDS011;3732;48.052;7.800;2022-07-05T03:31:08;2.80;;;2.43;;
7381;SDS011;3732;48.052;7.800;2022-07-05T03:33:35;2.60;;;2.33;;
7381;SDS011;3732;48.052;7.800;2022-07-05T03:36:03;3.03;;;2.37;;
7381;SDS011;3732;48.052;7.800;2022-07-05T03:38:32;2.90;;;2.60;;
7381;SDS011;3732;48.052;7.800;2022-07-05T03:40:59;3.33;;;3.07;;
7381;SDS011;3732;48.052;7.800;2022-07-05T03:43:26;4.57;;;2.57;;
7381;SDS011;3732;48.052;7.800;2022-07-05T03:45:54;2.83;;;2.63;;
7381;SDS011;3732;48.052;7.800;2022-07-05T03:48:21;3.10;;;2.80;;
7381;SDS011;3732;48.052;7.800;2022-07-05T03:50:48;2.83;;;2.63;;
7381;SDS011;3732;48.052;7.800;2022-07-05T03:53:16;3.60;;;2.57;;
7381;SDS011;3732;48.052;7.800;2022-07-05T03:55:44;2.60;;;2.40;;
7381;SDS011;3732;48.052;7.800;2022-07-05T03:58:11;4.53;;;2.73;;
7381;SDS011;3732;48.052;7.800;2022-07-05T04:00:39;3.90;;;2.80;;
7381;SDS011;3732;48.052;7.800;2022-07-05T04:03:06;2.70;;;2.50;;
7381;SDS011;3732;48.052;7.800;2022-07-05T04:05:33;3.20;;;2.90;;
7381;SDS011;3732;48.052;7.800;2022-07-05T04:08:00;3.90;;;2.60;;
7381;SDS011;3732;48.052;7.800;2022-07-05T04:10:28;2.70;;;2.47;;
7381;SDS011;3732;48.052;7.800;2022-07-05T04:16:13;3.30;;;2.83;;
7381;SDS011;3732;48.052;7.800;2022-07-05T04:18:41;3.47;;;3.17;;
7381;SDS011;3732;48.052;7.800;2022-07-05T04:21:08;4.40;;;3.00;;
7381;SDS011;3732;48.052;7.800;2022-07-05T04:23:35;3.10;;;2.90;;
7381;SDS011;3732;48.052;7.800;2022-07-05T04:26:02;4.63;;;3.03;;
7381;SDS011;3732;48.052;7.800;2022-07-05T04:28:29;3.20;;;2.53;;
7381;SDS011;3732;48.052;7.800;2022-07-05T04:30:57;3.77;;;3.03;;
7381;SDS011;3732;48.052;7.800;2022-07-05T04:33:25;6.10;;;2.90;;
7381;SDS011;3732;48.052;7.800;2022-07-05T04:35:52;6.30;;;3.30;;
7381;SDS011;3732;48.052;7.800;2022-07-05T04:38:20;3.50;;;3.20;;
7381;SDS011;3732;48.052;7.800;2022-07-05T04:40:47;7.50;;;3.10;;
7381;SDS011;3732;48.052;7.800;2022-07-05T04:43:14;4.60;;;2.97;;
7381;SDS011;3732;48.052;7.800;2022-07-05T04:45:42;3.63;;;3.17;;
7381;SDS011;3732;48.052;7.800;2022-07-05T04:48:09;3.60;;;3.30;;
7381;SDS011;3732;48.052;7.800;2022-07-05T04:50:38;3.53;;;3.10;;
7381;SDS011;3732;48.052;7.800;2022-07-05T04:53:05;3.80;;;3.45;;
7381;SDS011;3732;48.052;7.800;2022-07-05T04:55:32;3.73;;;3.03;;
7381;SDS011;3732;48.052;7.800;2022-07-05T04:58:02;3.73;;;3.33;;
7381;SDS011;3732;48.052;7.800;2022-07-05T05:00:30;3.70;;;3.10;;
7381;SDS011;3732;48.052;7.800;2022-07-05T05:02:57;3.37;;;2.97;;
7381;SDS011;3732;48.052;7.800;2022-07-05T05:05:24;4.37;;;3.00;;
7381;SDS011;3732;48.052;7.800;2022-07-05T05:07:53;6.00;;;3.17;;
7381;SDS011;3732;48.052;7.800;2022-07-05T05:10:20;4.93;;;2.90;;
7381;SDS011;3732;48.052;7.800;2022-07-05T05:12:47;5.37;;;2.90;;
7381;SDS011;3732;48.052;7.800;2022-07-05T05:15:14;4.37;;;3.33;;
7381;SDS011;3732;48.052;7.800;2022-07-05T05:17:42;4.73;;;3.20;;
7381;SDS011;3732;48.052;7.800;2022-07-05T05:20:10;4.83;;;2.80;;
7381;SDS011;3732;48.052;7.800;2022-07-05T05:22:38;2.57;;;2.37;;
7381;SDS011;3732;48.052;7.800;2022-07-05T05:25:07;4.57;;;2.63;;
7381;SDS011;3732;48.052;7.800;2022-07-05T05:27:35;6.30;;;2.87;;
7381;SDS011;3732;48.052;7.800;2022-07-05T05:30:02;2.43;;;2.23;;
7381;SDS011;3732;48.052;7.800;2022-07-05T05:32:30;4.47;;;2.90;;
7381;SDS011;3732;48.052;7.800;2022-07-05T05:34:57;2.00;;;1.70;;
7381;SDS011;3732;48.052;7.800;2022-07-05T05:37:24;2.33;;;2.10;;
7381;SDS011;3732;48.052;7.800;2022-07-05T05:39:51;2.23;;;1.80;;
7381;SDS011;3732;48.052;7.800;2022-07-05T05:42:20;2.70;;;2.23;;
7381;SDS011;3732;48.052;7.800;2022-07-05T05:44:47;2.30;;;1.90;;
7381;SDS011;3732;48.052;7.800;2022-07-05T05:47:14;3.90;;;1.90;;
7381;SDS011;3732;48.052;7.800;2022-07-05T05:49:42;4.53;;;2.20;;
7381;SDS011;3732;48.052;7.800;2022-07-05T05:52:09;3.33;;;1.90;;
7381;SDS011;3732;48.052;7.800;2022-07-05T05:54:36;3.10;;;2.00;;
7381;SDS011;3732;48.052;7.800;2022-07-05T05:57:03;3.33;;;1.90;;
7381;SDS011;3732;48.052;7.800;2022-07-05T05:59:32;2.27;;;2.00;;
7381;SDS011;3732;48.052;7.800;2022-07-05T06:01:59;3.93;;;2.13;;
7381;SDS011;3732;48.052;7.800;2022-07-05T06:04:28;2.47;;;1.90;;
7381;SDS011;3732;48.052;7.800;2022-07-05T06:06:55;1.63;;;1.53;;
7381;SDS011;3732;48.052;7.800;2022-07-05T06:09:22;2.23;;;1.70;;
7381;SDS011;3732;48.052;7.800;2022-07-05T06:11:49;3.67;;;1.80;;
7381;SDS011;3732;48.052;7.800;2022-07-05T06:14:17;2.53;;;1.60;;
7381;SDS011;3732;48.052;7.800;2022-07-05T06:16:45;1.63;;;1.53;;
7381;SDS011;3732;48.052;7.800;2022-07-05T06:19:12;2.27;;;1.70;;
7381;SDS011;3732;48.052;7.800;2022-07-05T06:21:40;5.63;;;1.67;;
7381;SDS011;3732;48.052;7.800;2022-07-05T06:24:07;1.70;;;1.40;;
7381;SDS011;3732;48.052;7.800;2022-07-05T06:26:34;1.50;;;1.40;;
7381;SDS011;3732;48.052;7.800;2022-07-05T06:29:01;2.50;;;1.27;;
7381;SDS011;3732;48.052;7.800;2022-07-05T06:31:29;2.30;;;1.30;;
7381;SDS011;3732;48.052;7.800;2022-07-05T06:33:57;2.40;;;1.60;;
7381;SDS011;3732;48.052;7.800;2022-07-05T06:36:24;2.80;;;1.40;;
7381;SDS011;3732;48.052;7.800;2022-07-05T06:38:52;1.57;;;1.40;;
7381;SDS011;3732;48.052;7.800;2022-07-05T06:41:19;3.03;;;1.20;;
7381;SDS011;3732;48.052;7.800;2022-07-05T06:43:46;2.17;;;1.10;;
7381;SDS011;3732;48.052;7.800;2022-07-05T06:46:13;1.30;;;1.20;;
7381;SDS011;3732;48.052;7.800;2022-07-05T06:48:40;1.43;;;1.07;;
7381;SDS011;3732;48.052;7.800;2022-07-05T06:51:09;2.00;;;1.33;;
7381;SDS011;3732;48.052;7.800;2022-07-05T06:53:36;2.27;;;1.20;;
7381;SDS011;3732;48.052;7.800;2022-07-05T06:56:04;1.30;;;1.20;;
7381;SDS011;3732;48.052;7.800;2022-07-05T06:58:31;1.00;;;1.00;;
7381;SDS011;3732;48.052;7.800;2022-07-05T07:00:58;1.90;;;0.77;;
7381;SDS011;3732;48.052;7.800;2022-07-05T07:03:25;2.60;;;1.47;;
7381;SDS011;3732;48.052;7.800;2022-07-05T07:05:53;2.63;;;1.17;;
7381;SDS011;3732;48.052;7.800;2022-07-05T07:08:21;1.43;;;0.77;;
7381;SDS011;3732;48.052;7.800;2022-07-05T07:11:06;2.13;;;0.97;;
7381;SDS011;3732;48.052;7.800;2022-07-05T07:13:33;3.63;;;1.00;;
7381;SDS011;3732;48.052;7.800;2022-07-05T07:16:01;1.57;;;1.00;;
7381;SDS011;3732;48.052;7.800;2022-07-05T07:18:28;2.33;;;1.07;;
7381;SDS011;3732;48.052;7.800;2022-07-05T07:20:57;2.60;;;0.97;;
7381;SDS011;3732;48.052;7.800;2022-07-05T07:23:26;1.53;;;1.43;;
7381;SDS011;3732;48.052;7.800;2022-07-05T07:25:53;1.57;;;1.13;;
7381;SDS011;3732;48.052;7.800;2022-07-05T07:28:20;3.07;;;1.23;;
7381;SDS011;3732;48.052;7.800;2022-07-05T07:30:49;1.67;;;0.90;;
7381;SDS011;3732;48.052;7.800;2022-07-05T07:33:16;1.63;;;0.80;;
7381;SDS011;3732;48.052;7.800;2022-07-05T07:35:43;2.97;;;1.10;;
7381;SDS011;3732;48.052;7.800;2022-07-05T07:38:11;2.47;;;1.17;;
7381;SDS011;3732;48.052;7.800;2022-07-05T07:40:39;1.20;;;1.10;;
7381;SDS011;3732;48.052;7.800;2022-07-05T07:43:06;2.93;;;1.03;;
7381;SDS011;3732;48.052;7.800;2022-07-05T07:45:34;4.10;;;1.10;;
7381;SDS011;3732;48.052;7.800;2022-07-05T07:48:01;1.30;;;1.10;;
7381;SDS011;3732;48.052;7.800;2022-07-05T07:50:28;1.37;;;1.10;;
7381;SDS011;3732;48.052;7.800;2022-07-05T07:52:55;1.83;;;1.23;;
7381;SDS011;3732;48.052;7.800;2022-07-05T07:55:22;2.53;;;1.03;;
7381;SDS011;3732;48.052;7.800;2022-07-05T07:57:51;1.53;;;1.10;;
7381;SDS011;3732;48.052;7.800;2022-07-05T08:00:18;1.73;;;1.20;;
7381;SDS011;3732;48.052;7.800;2022-07-05T08:02:46;1.20;;;1.10;;
7381;SDS011;3732;48.052;7.800;2022-07-05T08:05:13;1.20;;;1.10;;
7381;SDS011;3732;48.052;7.800;2022-07-05T08:07:40;2.53;;;1.30;;
7381;SDS011;3732;48.052;7.800;2022-07-05T08:10:08;2.10;;;0.93;;
7381;SDS011;3732;48.052;7.800;2022-07-05T08:12:35;2.87;;;0.90;;
7381;SDS011;3732;48.052;7.800;2022-07-05T08:15:04;1.90;;;0.80;;
7381;SDS011;3732;48.052;7.800;2022-07-05T08:17:33;1.37;;;1.00;;
7381;SDS011;3732;48.052;7.800;2022-07-05T08:20:00;1.10;;;1.00;;
7381;SDS011;3732;48.052;7.800;2022-07-05T08:22:45;1.23;;;1.03;;
7381;SDS011;3732;48.052;7.800;2022-07-05T08:25:12;3.43;;;1.33;;
7381;SDS011;3732;48.052;7.800;2022-07-05T08:27:42;1.40;;;1.10;;
7381;SDS011;3732;48.052;7.800;2022-07-05T08:30:11;1.40;;;1.30;;
7381;SDS011;3732;48.052;7.800;2022-07-05T08:32:38;1.50;;;1.10;;
7381;SDS011;3732;48.052;7.800;2022-07-05T08:35:06;1.47;;;1.27;;
7381;SDS011;3732;48.052;7.800;2022-07-05T08:37:34;1.30;;;1.10;;
7381;SDS011;3732;48.052;7.800;2022-07-05T08:40:01;2.00;;;1.13;;
7381;SDS011;3732;48.052;7.800;2022-07-05T08:42:32;1.67;;;1.33;;
7381;SDS011;3732;48.052;7.800;2022-07-05T08:45:01;1.50;;;0.90;;
7381;SDS011;3732;48.052;7.800;2022-07-05T08:47:30;1.53;;;1.10;;
7381;SDS011;3732;48.052;7.800;2022-07-05T08:49:58;1.10;;;1.00;;
7381;SDS011;3732;48.052;7.800;2022-07-05T08:52:26;2.77;;;1.73;;
7381;SDS011;3732;48.052;7.800;2022-07-05T08:54:53;3.07;;;1.10;;
7381;SDS011;3732;48.052;7.800;2022-07-05T08:57:21;2.67;;;1.37;;
7381;SDS011;3732;48.052;7.800;2022-07-05T08:59:48;1.53;;;0.90;;
7381;SDS011;3732;48.052;7.800;2022-07-05T09:02:16;2.20;;;1.57;;
7381;SDS011;3732;48.052;7.800;2022-07-05T09:04:44;1.53;;;1.10;;
7381;SDS011;3732;48.052;7.800;2022-07-05T09:07:14;1.70;;;1.37;;
7381;SDS011;3732;48.052;7.800;2022-07-05T09:09:41;2.60;;;1.13;;
7381;SDS011;3732;48.052;7.800;2022-07-05T09:12:11;4.13;;;1.20;;
7381;SDS011;3732;48.052;7.800;2022-07-05T09:14:39;2.03;;;1.00;;
7381;SDS011;3732;48.052;7.800;2022-07-05T09:17:07;1.20;;;1.10;;
7381;SDS011;3732;48.052;7.800;2022-07-05T09:19:34;2.77;;;1.47;;
7381;SDS011;3732;48.052;7.800;2022-07-05T09:22:04;2.00;;;1.00;;
7381;SDS011;3732;48.052;7.800;2022-07-05T09:24:42;4.03;;;1.13;;
7381;SDS011;3732;48.052;7.800;2022-07-05T09:27:09;5.80;;;1.40;;
7381;SDS011;3732;48.052;7.800;2022-07-05T09:29:36;1.53;;;1.27;;
7381;SDS011;3732;48.052;7.800;2022-07-05T09:32:04;1.17;;;1.07;;
7381;SDS011;3732;48.052;7.800;2022-07-05T09:34:32;1.77;;;1.27;;
7381;SDS011;3732;48.052;7.800;2022-07-05T09:37:01;4.40;;;1.20;;
7381;SDS011;3732;48.052;7.800;2022-07-05T09:39:36;2.53;;;1.00;;
7381;SDS011;3732;48.052;7.800;2022-07-05T09:42:11;2.70;;;1.23;;
7381;SDS011;3732;48.052;7.800;2022-07-05T09:44:38;1.50;;;1.40;;
7381;SDS011;3732;48.052;7.800;2022-07-05T09:47:09;1.13;;;1.03;;
7381;SDS011;3732;48.052;7.800;2022-07-05T09:49:37;1.60;;;1.50;;
7381;SDS011;3732;48.052;7.800;2022-07-05T09:52:04;1.53;;;1.00;;
7381;SDS011;3732;48.052;7.800;2022-07-05T09:54:31;1.50;;;1.17;;
7381;SDS011;3732;48.052;7.800;2022-07-05T09:57:00;2.83;;;1.30;;
7381;SDS011;3732;48.052;7.800;2022-07-05T09:59:27;3.60;;;1.30;;
7381;SDS011;3732;48.052;7.800;2022-07-05T10:01:55;2.60;;;1.60;;
7381;SDS011;3732;48.052;7.800;2022-07-05T10:04:22;2.10;;;1.30;;
7381;SDS011;3732;48.052;7.800;2022-07-05T10:06:49;2.87;;;1.30;;
7381;SDS011;3732;48.052;7.800;2022-07-05T10:09:17;2.07;;;1.10;;
7381;SDS011;3732;48.052;7.800;2022-07-05T10:11:45;1.70;;;1.30;;
7381;SDS011;3732;48.052;7.800;2022-07-05T10:14:16;1.90;;;1.23;;
7381;SDS011;3732;48.052;7.800;2022-07-05T10:16:45;1.30;;;1.00;;
7381;SDS011;3732;48.052;7.800;2022-07-05T10:19:14;1.87;;;1.40;;
7381;SDS011;3732;48.052;7.800;2022-07-05T10:21:42;1.90;;;0.97;;
7381;SDS011;3732;48.052;7.800;2022-07-05T10:24:10;1.07;;;0.97;;
7381;SDS011;3732;48.052;7.800;2022-07-05T10:26:38;3.57;;;1.13;;
7381;SDS011;3732;48.052;7.800;2022-07-05T10:29:06;1.87;;;1.20;;
7381;SDS011;3732;48.052;7.800;2022-07-05T10:31:36;1.73;;;1.00;;
7381;SDS011;3732;48.052;7.800;2022-07-05T10:34:03;1.50;;;1.10;;
7381;SDS011;3732;48.052;7.800;2022-07-05T10:36:33;1.57;;;1.00;;
7381;SDS011;3732;48.052;7.800;2022-07-05T10:39:03;3.87;;;1.10;;
7381;SDS011;3732;48.052;7.800;2022-07-05T10:41:32;4.10;;;1.40;;
7381;SDS011;3732;48.052;7.800;2022-07-05T10:43:59;3.60;;;1.20;;
7381;SDS011;3732;48.052;7.800;2022-07-05T10:46:33;0.80;;;0.80;;
7381;SDS011;3732;48.052;7.800;2022-07-05T10:49:13;1.70;;;1.00;;
7381;SDS011;3732;48.052;7.800;2022-07-05T10:51:40;0.90;;;0.90;;
7381;SDS011;3732;48.052;7.800;2022-07-05T10:54:08;0.87;;;0.87;;
7381;SDS011;3732;48.052;7.800;2022-07-05T10:56:35;0.93;;;0.90;;
7381;SDS011;3732;48.052;7.800;2022-07-05T10:59:04;1.23;;;0.93;;
7381;SDS011;3732;48.052;7.800;2022-07-05T11:01:35;1.17;;;1.00;;
7381;SDS011;3732;48.052;7.800;2022-07-05T11:06:50;1.17;;;0.77;;
7381;SDS011;3732;48.052;7.800;2022-07-05T11:09:17;2.63;;;0.80;;
7381;SDS011;3732;48.052;7.800;2022-07-05T11:11:45;2.00;;;0.90;;
7381;SDS011;3732;48.052;7.800;2022-07-05T11:17:17;1.33;;;1.00;;
7381;SDS011;3732;48.052;7.800;2022-07-05T11:20:10;1.27;;;0.90;;
7381;SDS011;3732;48.052;7.800;2022-07-05T11:22:39;1.20;;;0.90;;
7381;SDS011;3732;48.052;7.800;2022-07-05T11:25:08;1.93;;;0.80;;
7381;SDS011;3732;48.052;7.800;2022-07-05T11:27:36;1.23;;;1.00;;
7381;SDS011;3732;48.052;7.800;2022-07-05T11:30:04;1.43;;;0.90;;
7381;SDS011;3732;48.052;7.800;2022-07-05T11:32:49;0.83;;;0.83;;
7381;SDS011;3732;48.052;7.800;2022-07-05T11:35:16;2.93;;;1.40;;
7381;SDS011;3732;48.052;7.800;2022-07-05T11:40:31;1.43;;;1.00;;
7381;SDS011;3732;48.052;7.800;2022-07-05T11:42:59;1.03;;;0.97;;
7381;SDS011;3732;48.052;7.800;2022-07-05T11:45:28;1.20;;;1.10;;
7381;SDS011;3732;48.052;7.800;2022-07-05T11:47:55;0.97;;;0.70;;
7381;SDS011;3732;48.052;7.800;2022-07-05T11:50:27;1.17;;;0.80;;
7381;SDS011;3732;48.052;7.800;2022-07-05T11:52:55;2.93;;;1.10;;
7381;SDS011;3732;48.052;7.800;2022-07-05T11:55:23;2.30;;;1.17;;
7381;SDS011;3732;48.052;7.800;2022-07-05T11:57:52;1.20;;;0.90;;
7381;SDS011;3732;48.052;7.800;2022-07-05T12:00:27;1.97;;;1.00;;
7381;SDS011;3732;48.052;7.800;2022-07-05T12:02:54;3.00;;;0.97;;
7381;SDS011;3732;48.052;7.800;2022-07-05T12:05:29;1.00;;;0.93;;
7381;SDS011;3732;48.052;7.800;2022-07-05T12:07:56;1.93;;;1.00;;
7381;SDS011;3732;48.052;7.800;2022-07-05T12:10:23;1.17;;;1.00;;
7381;SDS011;3732;48.052;7.800;2022-07-05T12:13:09;1.50;;;1.00;;
7381;SDS011;3732;48.052;7.800;2022-07-05T12:15:37;1.17;;;1.07;;
7381;SDS011;3732;48.052;7.800;2022-07-05T12:18:05;3.63;;;1.10;;
7381;SDS011;3732;48.052;7.800;2022-07-05T12:20:34;2.40;;;1.00;;
7381;SDS011;3732;48.052;7.800;2022-07-05T12:23:02;1.43;;;1.27;;
7381;SDS011;3732;48.052;7.800;2022-07-05T12:25:29;3.50;;;0.87;;
7381;SDS011;3732;48.052;7.800;2022-07-05T12:27:57;3.77;;;1.00;;
7381;SDS011;3732;48.052;7.800;2022-07-05T12:30:28;1.57;;;0.77;;
7381;SDS011;3732;48.052;7.800;2022-07-05T12:32:57;1.87;;;1.10;;
7381;SDS011;3732;48.052;7.800;2022-07-05T12:35:28;3.80;;;1.43;;
7381;SDS011;3732;48.052;7.800;2022-07-05T12:37:56;0.87;;;0.80;;
7381;SDS011;3732;48.052;7.800;2022-07-05T12:40:23;1.60;;;0.93;;
7381;SDS011;3732;48.052;7.800;2022-07-05T12:43:00;1.53;;;0.90;;
7381;SDS011;3732;48.052;7.800;2022-07-05T12:45:32;1.00;;;0.83;;
7381;SDS011;3732;48.052;7.800;2022-07-05T12:48:00;1.00;;;0.90;;
7381;SDS011;3732;48.052;7.800;2022-07-05T12:50:29;2.43;;;0.87;;
7381;SDS011;3732;48.052;7.800;2022-07-05T12:53:00;1.10;;;0.60;;
7381;SDS011;3732;48.052;7.800;2022-07-05T12:55:47;1.47;;;1.00;;
7381;SDS011;3732;48.052;7.800;2022-07-05T12:58:32;1.53;;;0.83;;
7381;SDS011;3732;48.052;7.800;2022-07-05T13:01:01;1.20;;;0.87;;
7381;SDS011;3732;48.052;7.800;2022-07-05T13:03:28;2.37;;;1.10;;
7381;SDS011;3732;48.052;7.800;2022-07-05T13:05:59;0.93;;;0.80;;
7381;SDS011;3732;48.052;7.800;2022-07-05T13:08:27;0.70;;;0.70;;
7381;SDS011;3732;48.052;7.800;2022-07-05T13:10:54;1.03;;;0.80;;
7381;SDS011;3732;48.052;7.800;2022-07-05T13:13:21;1.13;;;0.80;;
7381;SDS011;3732;48.052;7.800;2022-07-05T13:15:49;1.30;;;0.70;;
7381;SDS011;3732;48.052;7.800;2022-07-05T13:18:24;1.00;;;0.70;;
7381;SDS011;3732;48.052;7.800;2022-07-05T13:20:51;1.27;;;0.90;;
7381;SDS011;3732;48.052;7.800;2022-07-05T13:23:18;1.67;;;1.47;;
7381;SDS011;3732;48.052;7.800;2022-07-05T13:25:45;2.60;;;0.97;;
7381;SDS011;3732;48.052;7.800;2022-07-05T13:28:13;0.83;;;0.60;;
7381;SDS011;3732;48.052;7.800;2022-07-05T13:30:40;0.90;;;0.77;;
7381;SDS011;3732;48.052;7.800;2022-07-05T13:33:07;1.37;;;0.90;;
7381;SDS011;3732;48.052;7.800;2022-07-05T13:35:36;0.90;;;0.90;;
7381;SDS011;3732;48.052;7.800;2022-07-05T13:38:03;0.70;;;0.70;;
7381;SDS011;3732;48.052;7.800;2022-07-05T13:40:30;1.60;;;0.93;;
7381;SDS011;3732;48.052;7.800;2022-07-05T13:42:57;1.73;;;1.17;;
7381;SDS011;3732;48.052;7.800;2022-07-05T13:45:24;0.97;;;0.87;;
7381;SDS011;3732;48.052;7.800;2022-07-05T13:47:52;1.10;;;0.77;;
7381;SDS011;3732;48.052;7.800;2022-07-05T13:50:19;1.20;;;0.60;;
7381;SDS011;3732;48.052;7.800;2022-07-05T13:52:59;2.50;;;1.20;;
7381;SDS011;3732;48.052;7.800;2022-07-05T13:55:27;1.97;;;0.70;;
7381;SDS011;3732;48.052;7.800;2022-07-05T13:57:54;3.37;;;1.00;;
7381;SDS011;3732;48.052;7.800;2022-07-05T14:00:23;1.77;;;0.80;;
7381;SDS011;3732;48.052;7.800;2022-07-05T14:02:50;1.73;;;0.90;;
7381;SDS011;3732;48.052;7.800;2022-07-05T14:05:18;1.73;;;0.90;;
7381;SDS011;3732;48.052;7.800;2022-07-05T14:07:45;2.50;;;0.90;;
7381;SDS011;3732;48.052;7.800;2022-07-05T14:10:14;1.23;;;0.70;;
7381;SDS011;3732;48.052;7.800;2022-07-05T14:12:42;0.93;;;0.77;;
7381;SDS011;3732;48.052;7.800;2022-07-05T14:15:09;1.13;;;1.00;;
7381;SDS011;3732;48.052;7.800;2022-07-05T14:17:36;1.37;;;1.20;;
7381;SDS011;3732;48.052;7.800;2022-07-05T14:20:05;1.23;;;0.90;;
7381;SDS011;3732;48.052;7.800;2022-07-05T14:22:32;1.87;;;1.07;;
7381;SDS011;3732;48.052;7.800;2022-07-05T14:24:59;2.10;;;0.83;;
7381;SDS011;3732;48.052;7.800;2022-07-05T14:27:28;3.03;;;0.90;;
7381;SDS011;3732;48.052;7.800;2022-07-05T14:29:55;1.10;;;1.00;;
7381;SDS011;3732;48.052;7.800;2022-07-05T14:32:23;2.07;;;1.07;;
7381;SDS011;3732;48.052;7.800;2022-07-05T14:34:50;0.87;;;0.87;;
7381;SDS011;3732;48.052;7.800;2022-07-05T14:37:17;1.90;;;1.13;;
7381;SDS011;3732;48.052;7.800;2022-07-05T14:39:47;2.73;;;1.00;;
7381;SDS011;3732;48.052;7.800;2022-07-05T14:42:15;0.77;;;0.77;;
7381;SDS011;3732;48.052;7.800;2022-07-05T14:44:44;1.17;;;0.80;;
7381;SDS011;3732;48.052;7.800;2022-07-05T14:47:11;1.20;;;1.10;;
7381;SDS011;3732;48.052;7.800;2022-07-05T14:49:38;1.20;;;1.10;;
7381;SDS011;3732;48.052;7.800;2022-07-05T14:52:05;1.83;;;0.80;;
7381;SDS011;3732;48.052;7.800;2022-07-05T14:54:33;0.80;;;0.80;;
7381;SDS011;3732;48.052;7.800;2022-07-05T14:57:00;4.57;;;0.80;;
7381;SDS011;3732;48.052;7.800;2022-07-05T14:59:27;1.67;;;0.90;;
7381;SDS011;3732;48.052;7.800;2022-07-05T15:01:56;1.70;;;0.70;;
7381;SDS011;3732;48.052;7.800;2022-07-05T15:04:23;2.63;;;1.00;;
7381;SDS011;3732;48.052;7.800;2022-07-05T15:06:50;1.33;;;0.97;;
7381;SDS011;3732;48.052;7.800;2022-07-05T15:09:19;1.50;;;0.90;;
7381;SDS011;3732;48.052;7.800;2022-07-05T15:11:46;1.13;;;0.93;;
7381;SDS011;3732;48.052;7.800;2022-07-05T15:14:13;1.53;;;0.93;;
7381;SDS011;3732;48.052;7.800;2022-07-05T15:16:41;1.57;;;1.10;;
7381;SDS011;3732;48.052;7.800;2022-07-05T15:19:09;1.97;;;1.03;;
7381;SDS011;3732;48.052;7.800;2022-07-05T15:21:36;2.50;;;0.90;;
7381;SDS011;3732;48.052;7.800;2022-07-05T15:24:04;2.47;;;1.17;;
7381;SDS011;3732;48.052;7.800;2022-07-05T15:26:32;2.40;;;0.80;;
7381;SDS011;3732;48.052;7.800;2022-07-05T15:29:02;1.17;;;1.00;;
7381;SDS011;3732;48.052;7.800;2022-07-05T15:31:29;0.67;;;0.67;;
7381;SDS011;3732;48.052;7.800;2022-07-05T15:33:57;2.20;;;1.20;;
7381;SDS011;3732;48.052;7.800;2022-07-05T15:36:25;1.43;;;0.90;;